Cave Spring, Virginia
Current Conditions -  °F | °C
As of 10:54 AM on Sunday 23 Nov 2014 (Local Time) from KROA Reporting Station
Overcast Overcast  
Wind Chill: 41°   Ceiling: 15000
Heat Index: 41°   Visibility: 10mi
Dew Point: 24°   Wind: 0mph
Humidity: 51%   Direction: NA
Pressure: 30.2"   Gusts: NA
Location:  37.23°N, 80.01°W
Report Text: KROA 231554Z 00000KT 10SM BKN150 OVC250 05/M04 A3020 RMK AO2 SLP234 T00501044
Loading
Personal Weather Stations






























Interactive Weather Map New forecast layout! Learn more

10-Day Weather Forecast

Advertisements
Track Severe Weather on mobile